createdAt,value
2022-10-23T00:01:38.470Z,101124.41
2022-10-23T00:03:40.012Z,101127.75
2022-10-23T00:05:41.567Z,101122.16
2022-10-23T00:07:43.059Z,101127.41
2022-10-23T00:09:44.917Z,101122.59
2022-10-23T00:11:47.562Z,101122.41
2022-10-23T00:13:49.925Z,101126.44
2022-10-23T00:17:59.218Z,101134.31
2022-10-23T00:20:01.014Z,101136.31
2022-10-23T00:22:02.490Z,101138.81
2022-10-23T00:24:04.776Z,101137.25
2022-10-23T00:26:06.870Z,101133.13
2022-10-23T00:28:08.414Z,101147.34
2022-10-23T00:30:11.340Z,101143.75
2022-10-23T00:32:14.205Z,101140.03
2022-10-23T00:34:15.683Z,101137.25
2022-10-23T00:36:20.255Z,101141.66
2022-10-23T00:38:21.769Z,101143.81
2022-10-23T00:40:23.328Z,101122.94
2022-10-23T00:42:24.918Z,101138.28
2022-10-23T00:45:03.815Z,101143.63
2022-10-23T00:47:05.308Z,101149.16
2022-10-23T00:49:09.714Z,101139.31
2022-10-23T00:51:11.258Z,101134.66
2022-10-23T00:53:15.287Z,101142.66
2022-10-23T00:55:19.071Z,101145.94
2022-10-23T00:57:20.884Z,101151.38
2022-10-23T00:59:22.580Z,101142.41
2022-10-23T01:01:24.363Z,101140.53
2022-10-23T01:03:28.135Z,101142.41
2022-10-23T01:05:38.769Z,101137.41
2022-10-23T01:07:49.511Z,101146.22
2022-10-23T01:09:56.289Z,101152.41
2022-10-23T01:12:03.988Z,101139.13
2022-10-23T01:14:11.614Z,101151.56
2022-10-23T01:16:18.514Z,101147.94
2022-10-23T01:18:26.195Z,101146.75
2022-10-23T01:20:36.365Z,101152.25
2022-10-23T01:22:59.971Z,101149.31
2022-10-23T01:25:08.147Z,101145.00
2022-10-23T01:27:18.262Z,101148.78
2022-10-23T01:29:25.365Z,101147.84
2022-10-23T01:31:33.653Z,101150.69
2022-10-23T01:33:40.775Z,101147.69
2022-10-23T01:35:49.705Z,101150.72
2022-10-23T01:37:55.996Z,101153.22
2022-10-23T01:40:03.737Z,101161.75
2022-10-23T01:42:10.666Z,101162.09
2022-10-23T01:44:17.592Z,101166.41
2022-10-23T01:46:21.351Z,101167.97
2022-10-23T01:48:27.265Z,101162.19
2022-10-23T01:50:30.247Z,101148.06
2022-10-23T01:52:31.965Z,101147.03
2022-10-23T01:54:39.098Z,101148.66
2022-10-23T01:56:44.981Z,101146.41
2022-10-23T01:58:49.794Z,101151.56
2022-10-23T02:00:56.701Z,101151.41
2022-10-23T02:02:58.530Z,101158.97
2022-10-23T02:05:06.339Z,101154.66
2022-10-23T02:07:08.097Z,101157.25
2022-10-23T02:09:09.788Z,101147.25
2022-10-23T02:11:14.092Z,101147.25
2022-10-23T02:13:23.717Z,101146.88
2022-10-23T02:15:30.675Z,101145.00
2022-10-23T02:17:42.858Z,101148.47
2022-10-23T02:19:50.345Z,101146.81
2022-10-23T02:21:56.562Z,101149.75
2022-10-23T02:24:03.351Z,101138.28
2022-10-23T02:26:09.491Z,101147.06
2022-10-23T02:28:16.164Z,101144.22
2022-10-23T02:30:19.469Z,101132.94
2022-10-23T02:32:23.531Z,101143.44
2022-10-23T02:34:26.545Z,101141.31
2022-10-23T02:36:30.938Z,101129.34
2022-10-23T02:38:35.989Z,101142.06
2022-10-23T02:40:42.046Z,101124.50
2022-10-23T02:42:54.955Z,101142.25
2022-10-23T02:45:04.045Z,101140.34
2022-10-23T02:47:16.333Z,101135.19
2022-10-23T02:49:25.003Z,101134.16
2022-10-23T02:51:34.605Z,101138.81
2022-10-23T02:53:41.931Z,101140.63
2022-10-23T02:55:55.099Z,101139.34
2022-10-23T02:58:03.072Z,101143.66
2022-10-23T03:00:09.373Z,101144.88
2022-10-23T03:02:18.213Z,101133.22
2022-10-23T03:04:24.069Z,101136.94
2022-10-23T03:06:25.933Z,101132.28
2022-10-23T03:08:28.786Z,101128.81
2022-10-23T03:10:30.582Z,101128.81
2022-10-23T03:12:32.242Z,101120.03
2022-10-23T03:14:33.788Z,101120.97
2022-10-23T03:16:35.245Z,101122.09
2022-10-23T03:18:36.818Z,101127.81
2022-10-23T03:20:38.316Z,101127.63
2022-10-23T03:22:40.601Z,101125.72
2022-10-23T03:24:43.947Z,101126.25
2022-10-23T03:26:45.448Z,101136.06
2022-10-23T03:28:46.967Z,101137.28
2022-10-23T03:30:48.555Z,101137.59
2022-10-23T03:32:50.310Z,101143.28
2022-10-23T03:34:51.956Z,101141.72
2022-10-23T03:36:53.593Z,101136.38
2022-10-23T03:38:56.491Z,101134.50
2022-10-23T03:40:59.368Z,101143.28
2022-10-23T03:43:00.859Z,101140.78
2022-10-23T03:45:02.708Z,101140.34
2022-10-23T03:47:04.516Z,101143.78
2022-10-23T03:49:06.243Z,101136.81
2022-10-23T03:51:08.025Z,101140.19
2022-10-23T03:53:09.574Z,101151.13
2022-10-23T03:55:11.180Z,101151.03
2022-10-23T03:57:14.115Z,101149.38
2022-10-23T03:59:16.215Z,101146.88
2022-10-23T04:01:17.742Z,101146.19
2022-10-23T04:03:19.399Z,101144.47
2022-10-23T04:05:20.899Z,101138.78
2022-10-23T04:07:22.381Z,101141.69
2022-10-23T04:09:23.947Z,101144.19
2022-10-23T04:11:25.519Z,101153.94
2022-10-23T04:13:28.389Z,101152.19
2022-10-23T04:15:29.907Z,101145.91
2022-10-23T04:17:31.539Z,101152.19
2022-10-23T04:19:33.068Z,101150.66
2022-10-23T04:21:34.773Z,101144.53
2022-10-23T04:23:36.584Z,101142.19
2022-10-23T04:25:38.089Z,101142.03
2022-10-23T04:27:39.923Z,101140.63
2022-10-23T04:29:42.850Z,101145.09
2022-10-23T04:31:44.401Z,101140.78
2022-10-23T04:33:45.964Z,101134.06
2022-10-23T04:35:47.484Z,101142.16
2022-10-23T04:37:49.076Z,101152.81
2022-10-23T04:39:50.607Z,101148.44
2022-10-23T04:41:52.123Z,101146.06
2022-10-23T04:43:53.606Z,101144.50
2022-10-23T04:45:56.455Z,101147.94
2022-10-23T04:47:58.144Z,101138.59
2022-10-23T04:49:59.647Z,101145.63
2022-10-23T04:52:01.246Z,101145.81
2022-10-23T04:54:02.755Z,101140.31
2022-10-23T04:56:05.399Z,101147.38
2022-10-23T04:58:06.952Z,101144.06
2022-10-23T05:00:12.279Z,101153.25
2022-10-23T05:02:15.169Z,101143.53
2022-10-23T05:04:16.714Z,101148.72
2022-10-23T05:06:18.216Z,101143.53
2022-10-23T05:08:19.903Z,101148.31
2022-10-23T05:10:21.567Z,101146.59
2022-10-23T05:12:23.074Z,101142.84
2022-10-23T05:14:24.546Z,101145.66
2022-10-23T05:16:34.564Z,101137.66
2022-10-23T05:18:45.381Z,101135.47
2022-10-23T05:20:50.172Z,101139.84
2022-10-23T05:22:55.986Z,101143.38
2022-10-23T05:24:58.279Z,101145.97
2022-10-23T05:26:59.802Z,101140.00
2022-10-23T05:29:01.351Z,101139.16
2022-10-23T05:31:05.027Z,101144.41
2022-10-23T05:33:10.413Z,101143.53
2022-10-23T05:35:16.172Z,101140.00
2022-10-23T05:37:17.718Z,101147.06
2022-10-23T05:39:19.933Z,101147.22
2022-10-23T05:41:21.644Z,101149.66
2022-10-23T05:43:23.223Z,101148.81
2022-10-23T05:45:24.803Z,101147.22
2022-10-23T05:47:26.320Z,101151.00
2022-10-23T05:49:27.799Z,101156.31
2022-10-23T05:51:30.641Z,101151.69
2022-10-23T05:53:32.446Z,101159.63
2022-10-23T05:55:33.994Z,101164.09
2022-10-23T05:57:35.542Z,101168.50
2022-10-23T05:59:37.063Z,101155.16
2022-10-23T06:01:38.749Z,101151.53
2022-10-23T06:03:40.777Z,101151.63
2022-10-23T06:05:49.365Z,101146.38
2022-10-23T06:07:52.389Z,101144.25
2022-10-23T06:09:53.976Z,101139.78
2022-10-23T06:11:55.804Z,101140.63
2022-10-23T06:16:11.356Z,101143.31
2022-10-23T06:18:12.915Z,101136.09
2022-10-23T06:20:14.462Z,101144.97
2022-10-23T06:22:16.009Z,101150.91
2022-10-23T06:24:18.911Z,101140.94
2022-10-23T06:26:22.614Z,101138.13
2022-10-23T06:28:24.119Z,101135.44
2022-10-23T06:30:25.673Z,101141.66
2022-10-23T06:32:27.153Z,101138.03
2022-10-23T06:34:28.644Z,101131.69
2022-10-23T06:36:30.326Z,101144.78
2022-10-23T06:38:31.859Z,101154.22
2022-10-23T06:40:34.946Z,101148.97
2022-10-23T06:42:36.502Z,101152.34
2022-10-23T06:44:37.977Z,101156.03
2022-10-23T06:46:39.480Z,101163.38
2022-10-23T06:48:42.056Z,101165.31
2022-10-23T06:50:43.653Z,101169.84
2022-10-23T06:52:47.429Z,101171.09
2022-10-23T06:54:49.488Z,101155.50
2022-10-23T06:56:52.348Z,101170.78
2022-10-23T06:58:53.881Z,101168.84
2022-10-23T07:00:55.742Z,101168.19
2022-10-23T07:02:57.317Z,101165.81
2022-10-23T07:04:58.818Z,101162.88
2022-10-23T07:07:00.335Z,101156.28
2022-10-23T07:09:01.882Z,101151.69
2022-10-23T07:11:04.567Z,101155.50
2022-10-23T07:13:07.443Z,101163.59
2022-10-23T07:15:09.515Z,101171.00
2022-10-23T07:17:11.044Z,101166.53
2022-10-23T07:19:12.578Z,101164.75
2022-10-23T07:21:14.530Z,101158.28
2022-10-23T07:23:16.076Z,101159.66
2022-10-23T07:25:17.762Z,101161.34
2022-10-23T07:27:19.255Z,101165.66
2022-10-23T07:29:22.104Z,101154.00
2022-10-23T07:31:27.274Z,101141.41
2022-10-23T07:33:29.846Z,101150.03
2022-10-23T07:35:33.111Z,101151.56
2022-10-23T07:37:37.465Z,101158.13
2022-10-23T07:39:38.973Z,101154.13
2022-10-23T07:41:40.551Z,101161.38
2022-10-23T07:43:42.195Z,101153.19
2022-10-23T07:45:48.254Z,101154.22
2022-10-23T07:47:52.854Z,101155.16
2022-10-23T07:49:54.403Z,101156.53
2022-10-23T07:51:55.995Z,101156.28
2022-10-23T07:53:57.637Z,101156.47
2022-10-23T07:56:02.132Z,101162.22
2022-10-23T07:58:03.759Z,101157.63
2022-10-23T08:00:06.913Z,101145.69
2022-10-23T08:02:12.124Z,101147.81
2022-10-23T08:04:14.020Z,101156.81
2022-10-23T08:06:15.563Z,101160.94
2022-10-23T08:08:17.106Z,101156.25
2022-10-23T08:10:18.618Z,101152.44
2022-10-23T08:12:20.126Z,101156.94
2022-10-23T08:14:21.729Z,101154.16
2022-10-23T08:16:24.734Z,101150.53
2022-10-23T08:18:27.885Z,101148.44
2022-10-23T08:20:29.553Z,101161.53
2022-10-23T08:22:31.028Z,101154.06
2022-10-23T08:24:32.568Z,101154.06
2022-10-23T08:26:34.092Z,101145.06
2022-10-23T08:28:36.664Z,101149.97
2022-10-23T08:30:38.363Z,101154.47
2022-10-23T08:32:39.890Z,101143.34
2022-10-23T08:34:42.743Z,101151.66
2022-10-23T08:36:44.230Z,101151.59
2022-10-23T08:38:46.012Z,101155.72
2022-10-23T08:40:49.095Z,101134.66
2022-10-23T08:42:57.796Z,101147.47
2022-10-23T08:45:06.145Z,101133.03
2022-10-23T08:47:12.789Z,101141.03
2022-10-23T08:49:24.376Z,101142.16
2022-10-23T08:51:34.655Z,101138.25
2022-10-23T08:53:41.081Z,101130.78
2022-10-23T08:55:46.609Z,101134.00
2022-10-23T08:57:53.678Z,101139.88
2022-10-23T08:59:59.181Z,101140.97
2022-10-23T09:02:05.677Z,101137.03
2022-10-23T09:04:10.118Z,101140.81
2022-10-23T09:06:19.932Z,101140.31
2022-10-23T09:08:34.142Z,101136.25
2022-10-23T09:10:57.253Z,101138.09
2022-10-23T09:13:04.829Z,101138.44
2022-10-23T09:15:20.122Z,101144.44
2022-10-23T09:17:28.172Z,101131.13
2022-10-23T09:19:30.044Z,101131.22
2022-10-23T09:21:32.648Z,101127.16
2022-10-23T09:23:35.945Z,101115.13
2022-10-23T09:25:39.863Z,101119.53
2022-10-23T09:27:47.891Z,101129.84
2022-10-23T09:29:53.419Z,101122.75
2022-10-23T09:31:57.055Z,101123.06
2022-10-23T09:34:00.887Z,101116.06
2022-10-23T09:36:04.911Z,101119.06
2022-10-23T09:38:26.224Z,101120.16
2022-10-23T09:40:39.764Z,101111.94
2022-10-23T09:42:52.252Z,101122.03
2022-10-23T09:44:54.979Z,101118.16
2022-10-23T09:47:00.874Z,101112.03
2022-10-23T09:49:05.032Z,101114.09
2022-10-23T09:51:17.466Z,101108.72
2022-10-23T09:53:32.141Z,101110.16
2022-10-23T09:55:35.353Z,101112.56
2022-10-23T09:57:41.551Z,101105.97
2022-10-23T09:59:43.865Z,101101.69
2022-10-23T10:01:48.488Z,101106.03
2022-10-23T10:03:51.006Z,101108.63
2022-10-23T10:06:00.778Z,101115.09
2022-10-23T10:08:12.162Z,101114.41
2022-10-23T10:10:15.710Z,101113.06
2022-10-23T10:12:42.569Z,101103.91
2022-10-23T10:14:53.490Z,101104.63
2022-10-23T10:17:01.244Z,101102.72
2022-10-23T10:19:11.002Z,101104.31
2022-10-23T10:21:17.305Z,101098.38
2022-10-23T10:23:28.278Z,101098.78
2022-10-23T10:25:37.518Z,101091.13
2022-10-23T10:27:50.501Z,101083.53
2022-10-23T10:30:03.125Z,101090.66
2022-10-23T10:32:18.079Z,101090.88
2022-10-23T10:34:27.492Z,101095.78
2022-10-23T10:36:41.345Z,101094.84
2022-10-23T10:38:47.885Z,101077.75
2022-10-23T10:41:11.711Z,101085.72
2022-10-23T10:43:28.656Z,101085.72
2022-10-23T10:45:40.026Z,101083.66
2022-10-23T10:47:49.456Z,101079.75
2022-10-23T10:50:07.565Z,101071.53
2022-10-23T10:52:17.200Z,101076.44
2022-10-23T10:54:33.109Z,101061.63
2022-10-23T10:56:38.601Z,101066.66
2022-10-23T10:58:47.480Z,101071.16
2022-10-23T11:00:56.622Z,101056.59
2022-10-23T11:03:04.649Z,101056.00
2022-10-23T11:05:19.178Z,101049.38
2022-10-23T11:07:25.982Z,101047.41
2022-10-23T11:09:29.564Z,101041.28
2022-10-23T11:11:35.784Z,101040.28
2022-10-23T11:13:39.053Z,101039.69
2022-10-23T11:15:43.957Z,101031.97
2022-10-23T11:17:50.396Z,101016.88
2022-10-23T11:20:00.969Z,101036.59
2022-10-23T11:22:13.218Z,101037.78
2022-10-23T11:24:42.214Z,101020.91
2022-10-23T11:26:57.517Z,101017.84
2022-10-23T11:29:18.418Z,101011.81
2022-10-23T11:31:33.519Z,101004.91
2022-10-23T11:34:01.373Z,101002.72
2022-10-23T11:36:12.629Z,101002.00
2022-10-23T11:38:25.373Z,100995.63
2022-10-23T11:40:38.112Z,100994.13
2022-10-23T11:42:57.634Z,100998.53
2022-10-23T11:44:59.287Z,100995.84
2022-10-23T11:47:35.026Z,100988.75
2022-10-23T11:49:39.659Z,100983.97
2022-10-23T11:51:45.824Z,100984.84
2022-10-23T11:53:47.627Z,100976.25
2022-10-23T11:55:58.816Z,100976.50
2022-10-23T11:58:18.195Z,100976.75
2022-10-23T12:00:22.092Z,100973.94
2022-10-23T12:02:29.798Z,100976.75
2022-10-23T12:04:41.780Z,100973.81
2022-10-23T12:06:55.356Z,100967.41
2022-10-23T12:09:01.681Z,100976.97
2022-10-23T12:11:27.578Z,100977.97
2022-10-23T12:13:51.174Z,100969.03
2022-10-23T12:15:56.057Z,100963.44
2022-10-23T12:18:13.473Z,100955.28
2022-10-23T12:20:37.911Z,100955.41
2022-10-23T12:22:48.422Z,100954.94
2022-10-23T12:25:00.502Z,100948.78
2022-10-23T12:27:21.991Z,100941.19
2022-10-23T12:29:59.020Z,100943.41
2022-10-23T12:32:16.667Z,100935.53
2022-10-23T12:34:31.896Z,100934.13
2022-10-23T12:36:58.063Z,100930.69
2022-10-23T12:39:00.023Z,100934.13
2022-10-23T12:41:10.143Z,100933.53
2022-10-23T12:43:25.937Z,100932.41
2022-10-23T12:45:32.552Z,100923.81
2022-10-23T12:47:34.270Z,100919.13
2022-10-23T12:49:36.194Z,100919.00
2022-10-23T12:51:38.254Z,100915.19
2022-10-23T12:53:41.391Z,100913.50
2022-10-23T12:55:51.575Z,100912.66
2022-10-23T12:57:54.145Z,100907.13
2022-10-23T13:00:09.255Z,100896.34
2022-10-23T13:02:22.739Z,100904.63
2022-10-23T13:04:29.473Z,100897.25
2022-10-23T13:06:33.264Z,100891.00
2022-10-23T13:08:59.974Z,100889.09
2022-10-23T13:11:02.182Z,100878.88
2022-10-23T13:13:07.370Z,100866.47
2022-10-23T13:15:39.318Z,100877.38
2022-10-23T13:17:43.503Z,100868.91
2022-10-23T13:19:46.219Z,100860.22
2022-10-23T13:21:47.961Z,100868.03
2022-10-23T13:23:50.042Z,100860.94
2022-10-23T13:25:57.612Z,100862.72
2022-10-23T13:28:05.458Z,100868.84
2022-10-23T13:30:28.682Z,100871.34
2022-10-23T13:32:30.495Z,100859.28
2022-10-23T13:34:35.294Z,100863.84
2022-10-23T13:36:53.527Z,100866.13
2022-10-23T13:39:04.968Z,100857.31
2022-10-23T13:41:15.614Z,100863.69
2022-10-23T13:43:17.135Z,100865.47
2022-10-23T13:45:21.375Z,100851.84
2022-10-23T13:47:32.164Z,100850.41
2022-10-23T13:49:33.701Z,100852.91
2022-10-23T13:51:42.681Z,100858.09
2022-10-23T13:53:44.820Z,100851.00
2022-10-23T13:55:54.945Z,100850.06
2022-10-23T13:58:04.745Z,100851.25
2022-10-23T14:00:07.981Z,100848.09
2022-10-23T14:02:19.589Z,100844.22
2022-10-23T14:04:29.153Z,100843.50
2022-10-23T14:06:37.365Z,100837.84
2022-10-23T14:08:38.906Z,100838.44
2022-10-23T14:10:42.885Z,100842.25
2022-10-23T14:12:50.845Z,100833.91
2022-10-23T14:15:03.737Z,100839.75
2022-10-23T14:17:08.289Z,100827.25
2022-10-23T14:19:10.997Z,100833.75
2022-10-23T14:21:17.897Z,100824.94
2022-10-23T14:23:19.534Z,100831.03
2022-10-23T14:25:21.347Z,100832.00
2022-10-23T14:27:22.885Z,100824.19
2022-10-23T14:29:24.714Z,100826.28
2022-10-23T14:31:27.805Z,100827.00
2022-10-23T14:33:29.344Z,100823.84
2022-10-23T14:35:30.871Z,100820.28
2022-10-23T14:37:33.814Z,100819.66
2022-10-23T14:39:35.610Z,100828.50
2022-10-23T14:41:37.342Z,100820.63
2022-10-23T14:43:39.468Z,100814.38
2022-10-23T14:45:40.992Z,100812.47
2022-10-23T14:47:44.109Z,100806.69
2022-10-23T14:49:51.738Z,100803.53
2022-10-23T14:51:53.433Z,100810.38
2022-10-23T14:53:58.816Z,100807.94
2022-10-23T14:56:02.318Z,100801.56
2022-10-23T14:58:03.822Z,100802.28
2022-10-23T15:00:06.395Z,100800.09
2022-10-23T15:02:09.878Z,100806.22
2022-10-23T15:04:12.896Z,100801.59
2022-10-23T15:06:17.581Z,100796.97
2022-10-23T15:08:22.259Z,100794.41
2022-10-23T15:10:23.767Z,100797.72
2022-10-23T15:12:25.409Z,100794.53
2022-10-23T15:14:26.943Z,100785.38
2022-10-23T15:16:28.646Z,100787.59
2022-10-23T15:18:30.546Z,100783.50
2022-10-23T15:20:33.454Z,100778.38
2022-10-23T15:22:37.421Z,100776.91
2022-10-23T15:24:39.057Z,100773.25
2022-10-23T15:26:40.730Z,100774.72
2022-10-23T15:28:42.257Z,100763.72
2022-10-23T15:30:43.949Z,100762.38
2022-10-23T15:32:45.465Z,100751.38
2022-10-23T15:34:47.203Z,100755.78
2022-10-23T15:36:50.636Z,100750.03
2022-10-23T15:38:52.429Z,100752.47
2022-10-23T15:41:03.761Z,100749.28
2022-10-23T15:43:05.840Z,100748.28
2022-10-23T15:45:08.384Z,100741.91
2022-10-23T15:47:09.978Z,100743.13
2022-10-23T15:49:11.853Z,100741.53
2022-10-23T15:51:13.352Z,100731.97
2022-10-23T15:53:16.206Z,100738.72
2022-10-23T15:55:17.932Z,100737.25
2022-10-23T15:57:19.489Z,100740.91
2022-10-23T15:59:23.831Z,100739.09
2022-10-23T16:01:25.632Z,100735.75
2022-10-23T16:03:27.311Z,100732.31
2022-10-23T16:05:29.027Z,100735.88
2022-10-23T16:07:30.733Z,100726.34
2022-10-23T16:09:33.607Z,100731.34
2022-10-23T16:11:36.835Z,100725.97
2022-10-23T16:13:38.514Z,100728.16
2022-10-23T16:15:40.132Z,100724.50
2022-10-23T16:17:42.093Z,100719.84
2022-10-23T16:19:44.005Z,100720.81
2022-10-23T16:21:45.556Z,100721.31
2022-10-23T16:23:48.045Z,100722.41
2022-10-23T16:25:51.028Z,100726.41
2022-10-23T16:27:52.578Z,100727.63
2022-10-23T16:29:54.060Z,100720.06
2022-10-23T16:31:56.772Z,100718.13
2022-10-23T16:33:59.511Z,100720.06
2022-10-23T16:36:02.562Z,100718.59
2022-10-23T16:38:04.881Z,100701.84
2022-10-23T16:40:08.578Z,100698.19
2022-10-23T16:42:11.492Z,100697.81
2022-10-23T16:44:13.107Z,100696.09
2022-10-23T16:46:17.447Z,100701.47
2022-10-23T16:48:19.046Z,100699.53
2022-10-23T16:50:20.809Z,100713.69
2022-10-23T16:52:26.603Z,100706.00
2022-10-23T16:54:28.159Z,100698.50
2022-10-23T16:56:30.334Z,100710.34
2022-10-23T16:58:34.244Z,100695.94
2022-10-23T17:00:38.946Z,100686.53
2022-10-23T17:02:40.747Z,100690.19
2022-10-23T17:04:42.341Z,100691.78
2022-10-23T17:06:43.833Z,100693.38
2022-10-23T17:08:46.100Z,100675.78
2022-10-23T17:10:47.642Z,100681.16
2022-10-23T17:12:49.223Z,100677.63
2022-10-23T17:14:52.182Z,100672.13
2022-10-23T17:16:54.382Z,100662.38
2022-10-23T17:18:55.980Z,100643.09
2022-10-23T17:20:58.090Z,100637.84
2022-10-23T17:22:59.811Z,100625.53
2022-10-23T17:25:01.647Z,100629.53
2022-10-23T17:27:03.353Z,100635.66
2022-10-23T17:29:06.710Z,100629.31
2022-10-23T17:31:17.356Z,100637.22
2022-10-23T17:33:19.844Z,100643.75
2022-10-23T17:35:25.911Z,100650.09
2022-10-23T17:37:34.348Z,100651.47
2022-10-23T17:39:36.227Z,100649.03
2022-10-23T17:41:38.128Z,100643.59
2022-10-23T17:43:40.174Z,100627.72
2022-10-23T17:45:42.877Z,100620.13
2022-10-23T17:47:45.764Z,100629.66
2022-10-23T17:49:47.399Z,100626.72
2022-10-23T17:51:51.342Z,100628.81
2022-10-23T17:53:57.002Z,100646.44
2022-10-23T17:56:01.433Z,100642.81
2022-10-23T17:58:03.063Z,100646.75
2022-10-23T18:00:06.213Z,100638.09
2022-10-23T18:02:07.905Z,100641.00
2022-10-23T18:04:10.871Z,100638.31
2022-10-23T18:06:15.099Z,100632.09
2022-10-23T18:08:16.628Z,100623.06
2022-10-23T18:10:18.456Z,100621.47
2022-10-23T18:12:20.044Z,100611.72
2022-10-23T18:14:21.980Z,100598.19
2022-10-23T18:16:23.694Z,100604.88
2022-10-23T18:18:25.174Z,100608.53
2022-10-23T18:20:28.043Z,100606.06
2022-10-23T18:22:29.580Z,100610.72
2022-10-23T18:24:31.055Z,100609.22
2022-10-23T18:26:33.378Z,100608.53
2022-10-23T18:28:34.913Z,100596.66
2022-10-23T18:30:39.468Z,100603.47
2022-10-23T18:32:41.010Z,100599.19
2022-10-23T18:34:42.891Z,100598.91
2022-10-23T18:36:46.170Z,100589.38
2022-10-23T18:38:48.000Z,100592.19
2022-10-23T18:40:54.410Z,100593.03
2022-10-23T18:42:56.318Z,100597.66
2022-10-23T18:44:57.865Z,100595.94
2022-10-23T18:46:59.898Z,100587.69
2022-10-23T18:49:01.668Z,100585.22
2022-10-23T18:51:03.319Z,100573.66
2022-10-23T18:53:06.223Z,100582.03
2022-10-23T18:55:09.151Z,100582.38
2022-10-23T18:57:10.687Z,100587.97
2022-10-23T18:59:14.201Z,100593.09
2022-10-23T19:01:15.892Z,100584.44
2022-10-23T19:03:17.416Z,100567.25
2022-10-23T19:05:19.702Z,100563.03
2022-10-23T19:07:21.229Z,100563.25
2022-10-23T19:09:24.138Z,100574.44
2022-10-23T19:11:27.146Z,100564.59
2022-10-23T19:13:28.769Z,100566.97
2022-10-23T19:15:30.557Z,100572.50
2022-10-23T19:17:32.753Z,100566.75
2022-10-23T19:19:39.519Z,100574.22
2022-10-23T19:21:42.263Z,100571.25
2022-10-23T19:23:44.318Z,100578.34
2022-10-23T19:25:47.419Z,100568.25
2022-10-23T19:27:49.280Z,100575.03
2022-10-23T19:29:52.177Z,100553.59
2022-10-23T19:31:54.502Z,100556.28
2022-10-23T19:33:56.094Z,100557.59
2022-10-23T19:35:59.353Z,100549.72
2022-10-23T19:38:02.739Z,100543.63
2022-10-23T19:40:05.831Z,100531.81
2022-10-23T19:42:08.747Z,100534.28
2022-10-23T19:44:10.424Z,100530.63
2022-10-23T19:46:12.369Z,100519.56
2022-10-23T19:48:14.326Z,100521.63
2022-10-23T19:50:16.050Z,100527.44
2022-10-23T19:52:18.053Z,100531.53
2022-10-23T19:54:20.703Z,100547.38
2022-10-23T19:56:22.549Z,100543.75
2022-10-23T19:58:25.661Z,100536.88
2022-10-23T20:00:27.339Z,100548.00
2022-10-23T20:02:28.980Z,100551.03
2022-10-23T20:04:30.711Z,100551.66
2022-10-23T20:06:34.939Z,100541.72
2022-10-23T20:08:36.495Z,100533.69
2022-10-23T20:10:40.704Z,100544.19
2022-10-23T20:12:47.455Z,100535.59
2022-10-23T20:14:59.712Z,100551.47
2022-10-23T20:17:01.550Z,100553.81
2022-10-23T20:19:05.001Z,100544.59
2022-10-23T20:21:06.586Z,100543.50
2022-10-23T20:23:08.470Z,100551.66
2022-10-23T20:25:10.004Z,100543.63
2022-10-23T20:27:11.557Z,100538.81
2022-10-23T20:29:13.105Z,100547.81
2022-10-23T20:31:19.084Z,100543.63
2022-10-23T20:33:20.576Z,100537.09
2022-10-23T20:35:22.067Z,100535.06
2022-10-23T20:37:23.597Z,100531.66
2022-10-23T20:39:26.325Z,100530.03
2022-10-23T20:41:27.980Z,100530.69
2022-10-23T20:43:30.024Z,100542.16
2022-10-23T20:45:31.508Z,100535.75
2022-10-23T20:47:34.399Z,100530.72
2022-10-23T20:49:35.970Z,100531.78
2022-10-23T20:51:37.706Z,100525.69
2022-10-23T20:53:39.992Z,100522.28
2022-10-23T20:55:42.226Z,100521.53
2022-10-23T20:57:43.996Z,100516.34
2022-10-23T20:59:45.755Z,100523.88
2022-10-23T21:01:49.231Z,100522.78
2022-10-23T21:03:53.531Z,100520.88
2022-10-23T21:05:55.049Z,100518.94
2022-10-23T21:07:56.617Z,100512.31
2022-10-23T21:09:58.116Z,100511.34
2022-10-23T21:11:59.628Z,100508.47
2022-10-23T21:14:01.627Z,100501.97
2022-10-23T21:16:12.504Z,100494.56
2022-10-23T21:18:26.489Z,100497.34
2022-10-23T21:20:37.285Z,100496.50
2022-10-23T21:22:39.969Z,100502.50
2022-10-23T21:24:41.734Z,100506.78
2022-10-23T21:26:44.054Z,100506.56
2022-10-23T21:28:55.745Z,100519.63
2022-10-23T21:31:03.632Z,100508.28
2022-10-23T21:33:06.801Z,100514.19
2022-10-23T21:35:10.023Z,100539.66
2022-10-23T21:37:14.201Z,100542.31
2022-10-23T21:39:16.407Z,100537.72
2022-10-23T21:41:20.675Z,100547.88
2022-10-23T21:43:22.248Z,100553.88
2022-10-23T21:45:23.884Z,100539.31
2022-10-23T21:47:25.398Z,100549.91
2022-10-23T21:49:26.928Z,100551.53
2022-10-23T21:51:30.419Z,100555.69
2022-10-23T21:53:33.393Z,100547.34
2022-10-23T21:55:34.906Z,100546.38
2022-10-23T21:57:36.450Z,100539.31
2022-10-23T21:59:37.942Z,100546.59
2022-10-23T22:01:40.063Z,100535.44
2022-10-23T22:03:41.651Z,100542.94
2022-10-23T22:05:43.134Z,100546.56
2022-10-23T22:07:46.971Z,100527.94
2022-10-23T22:09:50.068Z,100538.88
2022-10-23T22:11:52.929Z,100543.81
2022-10-23T22:13:54.726Z,100544.44
2022-10-23T22:15:56.274Z,100547.44
2022-10-23T22:17:57.850Z,100546.81
2022-10-23T22:19:59.345Z,100552.91
2022-10-23T22:22:00.849Z,100556.13
2022-10-23T22:26:19.596Z,100569.41
2022-10-23T22:28:21.278Z,100568.53
2022-10-23T22:30:22.797Z,100573.16
2022-10-23T22:32:24.741Z,100568.84
2022-10-23T22:36:50.669Z,100572.47
2022-10-23T22:38:53.018Z,100571.06
2022-10-23T22:40:54.927Z,100571.38
2022-10-23T22:42:58.003Z,100577.84
2022-10-23T22:44:59.705Z,100569.28
2022-10-23T22:47:01.269Z,100574.63
2022-10-23T22:51:08.913Z,100569.91
2022-10-23T22:53:10.857Z,100579.34
2022-10-23T22:55:12.400Z,100572.19
2022-10-23T22:57:14.052Z,100567.44
2022-10-23T22:59:17.132Z,100567.34
2022-10-23T23:01:21.918Z,100550.19
2022-10-23T23:03:23.561Z,100562.44
2022-10-23T23:05:25.373Z,100557.47
2022-10-23T23:07:28.242Z,100547.00
2022-10-23T23:09:29.972Z,100539.84
2022-10-23T23:11:31.600Z,100551.28
2022-10-23T23:13:33.654Z,100543.38
2022-10-23T23:15:40.181Z,100541.78
2022-10-23T23:17:42.961Z,100528.16
2022-10-23T23:19:44.794Z,100527.75
2022-10-23T23:21:46.512Z,100519.81
2022-10-23T23:23:48.761Z,100521.53
2022-10-23T23:25:50.358Z,100516.84
2022-10-23T23:27:52.208Z,100512.22
2022-10-23T23:29:56.908Z,100505.28
2022-10-23T23:32:00.440Z,100499.81
2022-10-23T23:34:02.250Z,100509.34
2022-10-23T23:36:06.967Z,100516.50
2022-10-23T23:38:08.829Z,100505.03
2022-10-23T23:40:11.761Z,100506.63
2022-10-23T23:42:13.788Z,100491.44
2022-10-23T23:44:15.396Z,100490.03
2022-10-23T23:46:17.382Z,100489.84
2022-10-23T23:48:20.395Z,100487.03
2022-10-23T23:50:22.041Z,100489.09
2022-10-23T23:52:23.760Z,100487.78
2022-10-23T23:54:25.343Z,100478.50